sensor_id;sensor_type;location;lat;lon;timestamp;temperature;humidity
9223;DHT22;7557;51.698;3.942;2023-06-22T00:02:22;20.70;99.90
9223;DHT22;7557;51.698;3.942;2023-06-22T00:04:49;20.70;99.90
9223;DHT22;7557;51.698;3.942;2023-06-22T00:07:16;20.70;99.90
9223;DHT22;7557;51.698;3.942;2023-06-22T00:09:44;20.70;99.90
9223;DHT22;7557;51.698;3.942;2023-06-22T00:12:11;20.70;99.90
9223;DHT22;7557;51.698;3.942;2023-06-22T00:14:38;20.70;99.90
9223;DHT22;7557;51.698;3.942;2023-06-22T00:17:07;20.70;99.90
9223;DHT22;7557;51.698;3.942;2023-06-22T00:19:34;20.70;99.90
9223;DHT22;7557;51.698;3.942;2023-06-22T00:22:02;20.70;99.90
9223;DHT22;7557;51.698;3.942;2023-06-22T00:24:30;20.70;99.90
9223;DHT22;7557;51.698;3.942;2023-06-22T00:26:57;20.70;99.90
9223;DHT22;7557;51.698;3.942;2023-06-22T00:29:24;20.60;99.90
9223;DHT22;7557;51.698;3.942;2023-06-22T00:31:51;20.60;99.90
9223;DHT22;7557;51.698;3.942;2023-06-22T00:34:20;20.50;99.90
9223;DHT22;7557;51.698;3.942;2023-06-22T00:36:47;20.50;99.90
9223;DHT22;7557;51.698;3.942;2023-06-22T00:39:17;20.50;99.90
9223;DHT22;7557;51.698;3.942;2023-06-22T00:41:44;20.50;99.90
9223;DHT22;7557;51.698;3.942;2023-06-22T00:44:11;20.40;99.90
9223;DHT22;7557;51.698;3.942;2023-06-22T00:50:02;20.20;99.90
9223;DHT22;7557;51.698;3.942;2023-06-22T00:52:30;20.00;99.90
9223;DHT22;7557;51.698;3.942;2023-06-22T00:54:59;19.70;99.90
9223;DHT22;7557;51.698;3.942;2023-06-22T00:57:28;19.50;99.90
9223;DHT22;7557;51.698;3.942;2023-06-22T00:59:56;19.40;99.90
9223;DHT22;7557;51.698;3.942;2023-06-22T01:02:24;19.40;99.90
9223;DHT22;7557;51.698;3.942;2023-06-22T01:04:55;19.40;99.90
9223;DHT22;7557;51.698;3.942;2023-06-22T01:07:30;19.30;99.90
9223;DHT22;7557;51.698;3.942;2023-06-22T01:10:05;19.30;99.90
9223;DHT22;7557;51.698;3.942;2023-06-22T01:12:40;19.40;99.90
9223;DHT22;7557;51.698;3.942;2023-06-22T01:15:13;19.50;99.90
9223;DHT22;7557;51.698;3.942;2023-06-22T01:17:43;19.60;99.90
9223;DHT22;7557;51.698;3.942;2023-06-22T01:20:12;19.60;99.90
9223;DHT22;7557;51.698;3.942;2023-06-22T01:22:49;19.60;99.90
9223;DHT22;7557;51.698;3.942;2023-06-22T01:25:21;19.60;99.90
9223;DHT22;7557;51.698;3.942;2023-06-22T01:27:56;19.60;99.90
9223;DHT22;7557;51.698;3.942;2023-06-22T01:30:28;19.50;99.90
9223;DHT22;7557;51.698;3.942;2023-06-22T01:32:57;19.40;99.90
9223;DHT22;7557;51.698;3.942;2023-06-22T01:35:25;19.50;99.90
9223;DHT22;7557;51.698;3.942;2023-06-22T01:37:53;19.60;99.90
9223;DHT22;7557;51.698;3.942;2023-06-22T01:40:22;19.70;99.90
9223;DHT22;7557;51.698;3.942;2023-06-22T01:42:50;19.80;99.90
9223;DHT22;7557;51.698;3.942;2023-06-22T01:45:18;19.90;99.90
9223;DHT22;7557;51.698;3.942;2023-06-22T01:47:47;19.80;99.90
9223;DHT22;7557;51.698;3.942;2023-06-22T01:50:15;19.70;99.90
9223;DHT22;7557;51.698;3.942;2023-06-22T01:52:42;19.70;99.90
9223;DHT22;7557;51.698;3.942;2023-06-22T01:55:09;19.80;99.90
9223;DHT22;7557;51.698;3.942;2023-06-22T01:57:37;19.70;99.90
9223;DHT22;7557;51.698;3.942;2023-06-22T02:00:07;19.60;99.90
9223;DHT22;7557;51.698;3.942;2023-06-22T02:02:41;19.50;99.90
9223;DHT22;7557;51.698;3.942;2023-06-22T02:05:17;19.50;99.90
9223;DHT22;7557;51.698;3.942;2023-06-22T02:07:49;19.60;99.90
9223;DHT22;7557;51.698;3.942;2023-06-22T02:10:20;19.70;99.90
9223;DHT22;7557;51.698;3.942;2023-06-22T02:12:50;19.60;99.90
9223;DHT22;7557;51.698;3.942;2023-06-22T02:15:18;19.60;99.90
9223;DHT22;7557;51.698;3.942;2023-06-22T02:17:46;19.50;99.90
9223;DHT22;7557;51.698;3.942;2023-06-22T02:20:16;19.50;99.90
9223;DHT22;7557;51.698;3.942;2023-06-22T02:22:43;19.50;99.90
9223;DHT22;7557;51.698;3.942;2023-06-22T02:25:11;19.60;99.90
9223;DHT22;7557;51.698;3.942;2023-06-22T02:27:38;19.70;99.90
9223;DHT22;7557;51.698;3.942;2023-06-22T02:30:07;19.80;99.90
9223;DHT22;7557;51.698;3.942;2023-06-22T02:32:35;19.90;99.90
9223;DHT22;7557;51.698;3.942;2023-06-22T02:35:02;19.90;99.90
9223;DHT22;7557;51.698;3.942;2023-06-22T02:37:33;20.00;99.90
9223;DHT22;7557;51.698;3.942;2023-06-22T02:40:05;20.00;99.90
9223;DHT22;7557;51.698;3.942;2023-06-22T02:42:34;20.00;99.90
9223;DHT22;7557;51.698;3.942;2023-06-22T02:45:01;20.00;99.90
9223;DHT22;7557;51.698;3.942;2023-06-22T02:47:29;19.90;99.90
9223;DHT22;7557;51.698;3.942;2023-06-22T02:49:56;19.80;99.90
9223;DHT22;7557;51.698;3.942;2023-06-22T02:52:23;19.80;99.90
9223;DHT22;7557;51.698;3.942;2023-06-22T02:54:51;19.80;99.90
9223;DHT22;7557;51.698;3.942;2023-06-22T02:57:19;19.80;99.90
9223;DHT22;7557;51.698;3.942;2023-06-22T02:59:46;19.80;99.90
9223;DHT22;7557;51.698;3.942;2023-06-22T03:02:13;19.70;99.90
9223;DHT22;7557;51.698;3.942;2023-06-22T03:04:42;19.60;99.90
9223;DHT22;7557;51.698;3.942;2023-06-22T03:07:09;19.60;99.90
9223;DHT22;7557;51.698;3.942;2023-06-22T03:09:36;19.50;99.90
9223;DHT22;7557;51.698;3.942;2023-06-22T03:12:05;19.50;99.90
9223;DHT22;7557;51.698;3.942;2023-06-22T03:14:32;19.40;99.90
9223;DHT22;7557;51.698;3.942;2023-06-22T03:17:00;19.30;99.90
9223;DHT22;7557;51.698;3.942;2023-06-22T03:19:28;19.20;99.90
9223;DHT22;7557;51.698;3.942;2023-06-22T03:21:57;19.20;99.90
9223;DHT22;7557;51.698;3.942;2023-06-22T03:24:24;19.10;99.90
9223;DHT22;7557;51.698;3.942;2023-06-22T03:26:54;19.10;99.90
9223;DHT22;7557;51.698;3.942;2023-06-22T03:29:23;19.10;99.90
9223;DHT22;7557;51.698;3.942;2023-06-22T03:31:51;19.10;99.90
9223;DHT22;7557;51.698;3.942;2023-06-22T03:34:18;19.10;99.90
9223;DHT22;7557;51.698;3.942;2023-06-22T03:36:45;19.00;99.90
9223;DHT22;7557;51.698;3.942;2023-06-22T03:39:13;19.00;99.90
9223;DHT22;7557;51.698;3.942;2023-06-22T03:41:40;19.00;99.90
9223;DHT22;7557;51.698;3.942;2023-06-22T03:44:07;19.00;99.90
9223;DHT22;7557;51.698;3.942;2023-06-22T03:46:40;19.00;99.90
9223;DHT22;7557;51.698;3.942;2023-06-22T03:49:07;19.00;99.90
9223;DHT22;7557;51.698;3.942;2023-06-22T03:51:35;19.10;99.90
9223;DHT22;7557;51.698;3.942;2023-06-22T03:54:02;19.20;99.90
9223;DHT22;7557;51.698;3.942;2023-06-22T03:56:29;19.30;99.90
9223;DHT22;7557;51.698;3.942;2023-06-22T03:58:57;19.30;99.90
9223;DHT22;7557;51.698;3.942;2023-06-22T04:01:24;19.30;99.90
9223;DHT22;7557;51.698;3.942;2023-06-22T04:03:53;19.40;99.90
9223;DHT22;7557;51.698;3.942;2023-06-22T04:06:21;19.40;99.90
9223;DHT22;7557;51.698;3.942;2023-06-22T04:08:49;19.40;99.90
9223;DHT22;7557;51.698;3.942;2023-06-22T04:11:16;19.40;99.90
9223;DHT22;7557;51.698;3.942;2023-06-22T04:13:44;19.40;99.90
9223;DHT22;7557;51.698;3.942;2023-06-22T04:16:12;19.40;99.90
9223;DHT22;7557;51.698;3.942;2023-06-22T04:18:39;19.40;99.90
9223;DHT22;7557;51.698;3.942;2023-06-22T04:21:10;19.40;99.90
9223;DHT22;7557;51.698;3.942;2023-06-22T04:23:38;19.40;99.90
9223;DHT22;7557;51.698;3.942;2023-06-22T04:26:05;19.50;99.90
9223;DHT22;7557;51.698;3.942;2023-06-22T04:28:32;19.50;99.90
9223;DHT22;7557;51.698;3.942;2023-06-22T04:31:01;19.40;99.90
9223;DHT22;7557;51.698;3.942;2023-06-22T04:33:28;19.40;99.90
9223;DHT22;7557;51.698;3.942;2023-06-22T04:35:56;19.40;99.90
9223;DHT22;7557;51.698;3.942;2023-06-22T04:38:25;19.50;99.90
9223;DHT22;7557;51.698;3.942;2023-06-22T04:40:52;19.40;99.90
9223;DHT22;7557;51.698;3.942;2023-06-22T04:43:20;19.50;99.90
9223;DHT22;7557;51.698;3.942;2023-06-22T04:45:47;19.60;99.90
9223;DHT22;7557;51.698;3.942;2023-06-22T04:48:18;19.60;99.90
9223;DHT22;7557;51.698;3.942;2023-06-22T04:50:45;19.70;99.90
9223;DHT22;7557;51.698;3.942;2023-06-22T04:53:12;19.60;99.90
9223;DHT22;7557;51.698;3.942;2023-06-22T04:55:41;19.50;99.90
9223;DHT22;7557;51.698;3.942;2023-06-22T04:58:11;19.50;99.90
9223;DHT22;7557;51.698;3.942;2023-06-22T05:00:39;19.50;99.90
9223;DHT22;7557;51.698;3.942;2023-06-22T05:03:06;19.60;99.90
9223;DHT22;7557;51.698;3.942;2023-06-22T05:05:37;19.70;99.90
9223;DHT22;7557;51.698;3.942;2023-06-22T05:08:05;19.70;99.90
9223;DHT22;7557;51.698;3.942;2023-06-22T05:10:33;19.80;99.90
9223;DHT22;7557;51.698;3.942;2023-06-22T05:13:02;20.00;99.90
9223;DHT22;7557;51.698;3.942;2023-06-22T05:15:29;20.10;99.90
9223;DHT22;7557;51.698;3.942;2023-06-22T05:18:02;20.20;99.90
9223;DHT22;7557;51.698;3.942;2023-06-22T05:20:31;20.30;99.90
9223;DHT22;7557;51.698;3.942;2023-06-22T05:22:59;20.40;99.90
9223;DHT22;7557;51.698;3.942;2023-06-22T05:25:26;20.50;99.90
9223;DHT22;7557;51.698;3.942;2023-06-22T05:27:55;20.70;99.90
9223;DHT22;7557;51.698;3.942;2023-06-22T05:30:25;20.80;99.90
9223;DHT22;7557;51.698;3.942;2023-06-22T05:32:52;21.00;99.90
9223;DHT22;7557;51.698;3.942;2023-06-22T05:35:20;21.20;99.90
9223;DHT22;7557;51.698;3.942;2023-06-22T05:37:47;21.40;99.90
9223;DHT22;7557;51.698;3.942;2023-06-22T05:40:15;21.70;99.90
9223;DHT22;7557;51.698;3.942;2023-06-22T05:42:43;21.70;99.90
9223;DHT22;7557;51.698;3.942;2023-06-22T05:45:10;21.70;99.90
9223;DHT22;7557;51.698;3.942;2023-06-22T05:47:39;21.80;99.90
9223;DHT22;7557;51.698;3.942;2023-06-22T05:50:08;21.80;99.90
9223;DHT22;7557;51.698;3.942;2023-06-22T05:52:35;21.80;99.90
9223;DHT22;7557;51.698;3.942;2023-06-22T05:55:03;21.80;99.90
9223;DHT22;7557;51.698;3.942;2023-06-22T05:57:30;22.00;99.90
9223;DHT22;7557;51.698;3.942;2023-06-22T05:59:58;22.20;99.90
9223;DHT22;7557;51.698;3.942;2023-06-22T06:02:25;22.30;99.90
9223;DHT22;7557;51.698;3.942;2023-06-22T06:04:54;22.20;99.90
9223;DHT22;7557;51.698;3.942;2023-06-22T06:07:21;22.00;99.90
9223;DHT22;7557;51.698;3.942;2023-06-22T06:09:49;22.00;99.90
9223;DHT22;7557;51.698;3.942;2023-06-22T06:12:16;22.00;99.90
9223;DHT22;7557;51.698;3.942;2023-06-22T06:14:44;22.00;99.90
9223;DHT22;7557;51.698;3.942;2023-06-22T06:17:11;22.00;99.90
9223;DHT22;7557;51.698;3.942;2023-06-22T06:19:39;22.10;99.90
9223;DHT22;7557;51.698;3.942;2023-06-22T06:22:08;22.20;99.90
9223;DHT22;7557;51.698;3.942;2023-06-22T06:24:37;22.30;99.90
9223;DHT22;7557;51.698;3.942;2023-06-22T06:27:05;22.40;99.90
9223;DHT22;7557;51.698;3.942;2023-06-22T06:29:32;22.40;99.90
9223;DHT22;7557;51.698;3.942;2023-06-22T06:32:00;22.40;99.90
9223;DHT22;7557;51.698;3.942;2023-06-22T06:34:27;22.40;99.90
9223;DHT22;7557;51.698;3.942;2023-06-22T06:36:55;22.50;99.90
9223;DHT22;7557;51.698;3.942;2023-06-22T06:39:24;22.60;99.90
9223;DHT22;7557;51.698;3.942;2023-06-22T06:41:51;22.70;99.90
9223;DHT22;7557;51.698;3.942;2023-06-22T06:44:19;22.70;99.90
9223;DHT22;7557;51.698;3.942;2023-06-22T06:46:47;22.90;99.90
9223;DHT22;7557;51.698;3.942;2023-06-22T06:49:14;22.90;99.90
9223;DHT22;7557;51.698;3.942;2023-06-22T06:51:41;23.00;99.90
9223;DHT22;7557;51.698;3.942;2023-06-22T06:54:08;23.20;99.90
9223;DHT22;7557;51.698;3.942;2023-06-22T06:56:37;23.30;99.90
9223;DHT22;7557;51.698;3.942;2023-06-22T06:59:05;23.60;99.90
9223;DHT22;7557;51.698;3.942;2023-06-22T07:01:32;23.90;99.90
9223;DHT22;7557;51.698;3.942;2023-06-22T07:04:01;24.10;99.90
9223;DHT22;7557;51.698;3.942;2023-06-22T07:06:28;24.30;99.90
9223;DHT22;7557;51.698;3.942;2023-06-22T07:08:57;24.50;99.90
9223;DHT22;7557;51.698;3.942;2023-06-22T07:11:25;24.60;99.90
9223;DHT22;7557;51.698;3.942;2023-06-22T07:13:55;24.70;99.90
9223;DHT22;7557;51.698;3.942;2023-06-22T07:16:23;24.70;99.90
9223;DHT22;7557;51.698;3.942;2023-06-22T07:18:51;24.70;99.90
9223;DHT22;7557;51.698;3.942;2023-06-22T07:21:19;24.60;99.90
9223;DHT22;7557;51.698;3.942;2023-06-22T07:23:46;24.50;99.90
9223;DHT22;7557;51.698;3.942;2023-06-22T07:26:13;24.40;99.90
9223;DHT22;7557;51.698;3.942;2023-06-22T07:28:42;24.40;99.90
9223;DHT22;7557;51.698;3.942;2023-06-22T07:31:11;24.40;99.90
9223;DHT22;7557;51.698;3.942;2023-06-22T07:33:38;24.40;99.90
9223;DHT22;7557;51.698;3.942;2023-06-22T07:36:06;24.40;99.90
9223;DHT22;7557;51.698;3.942;2023-06-22T07:38:34;24.20;99.90
9223;DHT22;7557;51.698;3.942;2023-06-22T07:41:02;24.30;99.90
9223;DHT22;7557;51.698;3.942;2023-06-22T07:43:31;24.40;99.90
9223;DHT22;7557;51.698;3.942;2023-06-22T07:45:59;24.50;99.90
9223;DHT22;7557;51.698;3.942;2023-06-22T07:48:28;24.50;99.90
9223;DHT22;7557;51.698;3.942;2023-06-22T07:50:57;24.60;99.90
9223;DHT22;7557;51.698;3.942;2023-06-22T07:53:26;24.60;99.90
9223;DHT22;7557;51.698;3.942;2023-06-22T07:55:54;24.60;99.90
9223;DHT22;7557;51.698;3.942;2023-06-22T07:58:21;24.80;99.90
9223;DHT22;7557;51.698;3.942;2023-06-22T08:00:49;24.80;99.90
9223;DHT22;7557;51.698;3.942;2023-06-22T08:03:16;24.80;99.90
9223;DHT22;7557;51.698;3.942;2023-06-22T08:05:45;24.90;99.90
9223;DHT22;7557;51.698;3.942;2023-06-22T08:08:12;24.90;99.90
9223;DHT22;7557;51.698;3.942;2023-06-22T08:10:40;24.90;99.90
9223;DHT22;7557;51.698;3.942;2023-06-22T08:13:08;24.80;99.90
9223;DHT22;7557;51.698;3.942;2023-06-22T08:15:35;24.80;99.90
9223;DHT22;7557;51.698;3.942;2023-06-22T08:18:03;24.80;99.90
9223;DHT22;7557;51.698;3.942;2023-06-22T08:20:30;24.80;99.90
9223;DHT22;7557;51.698;3.942;2023-06-22T08:22:59;24.90;99.90
9223;DHT22;7557;51.698;3.942;2023-06-22T08:25:31;25.00;99.90
9223;DHT22;7557;51.698;3.942;2023-06-22T08:28:00;25.00;99.90
9223;DHT22;7557;51.698;3.942;2023-06-22T08:30:27;24.90;99.90
9223;DHT22;7557;51.698;3.942;2023-06-22T08:32:54;24.90;99.90
9223;DHT22;7557;51.698;3.942;2023-06-22T08:35:23;24.90;99.90
9223;DHT22;7557;51.698;3.942;2023-06-22T08:37:50;25.00;99.90
9223;DHT22;7557;51.698;3.942;2023-06-22T08:40:23;25.10;99.90
9223;DHT22;7557;51.698;3.942;2023-06-22T08:42:51;25.10;99.90
9223;DHT22;7557;51.698;3.942;2023-06-22T08:45:18;25.00;99.90
9223;DHT22;7557;51.698;3.942;2023-06-22T08:47:46;25.00;99.90
9223;DHT22;7557;51.698;3.942;2023-06-22T08:50:13;24.90;99.90
9223;DHT22;7557;51.698;3.942;2023-06-22T08:52:41;24.80;99.90
9223;DHT22;7557;51.698;3.942;2023-06-22T08:55:09;24.80;99.90
9223;DHT22;7557;51.698;3.942;2023-06-22T08:57:38;24.70;99.90
9223;DHT22;7557;51.698;3.942;2023-06-22T09:00:07;24.70;99.90
9223;DHT22;7557;51.698;3.942;2023-06-22T09:02:43;24.60;99.90
9223;DHT22;7557;51.698;3.942;2023-06-22T09:05:10;24.40;99.90
9223;DHT22;7557;51.698;3.942;2023-06-22T09:07:38;24.40;99.90
9223;DHT22;7557;51.698;3.942;2023-06-22T09:10:06;24.40;99.90
9223;DHT22;7557;51.698;3.942;2023-06-22T09:12:34;24.40;99.90
9223;DHT22;7557;51.698;3.942;2023-06-22T09:15:06;24.40;99.90
9223;DHT22;7557;51.698;3.942;2023-06-22T09:17:34;24.40;99.90
9223;DHT22;7557;51.698;3.942;2023-06-22T09:20:03;24.50;99.90
9223;DHT22;7557;51.698;3.942;2023-06-22T09:22:31;24.50;99.90
9223;DHT22;7557;51.698;3.942;2023-06-22T09:24:59;24.50;99.90
9223;DHT22;7557;51.698;3.942;2023-06-22T09:27:26;24.50;99.90
9223;DHT22;7557;51.698;3.942;2023-06-22T09:29:54;24.60;99.90
9223;DHT22;7557;51.698;3.942;2023-06-22T09:32:25;24.60;99.90
9223;DHT22;7557;51.698;3.942;2023-06-22T09:34:53;24.60;99.90
9223;DHT22;7557;51.698;3.942;2023-06-22T09:37:20;24.50;99.90
9223;DHT22;7557;51.698;3.942;2023-06-22T09:39:47;24.40;99.90
9223;DHT22;7557;51.698;3.942;2023-06-22T09:42:14;24.40;99.90
9223;DHT22;7557;51.698;3.942;2023-06-22T09:44:42;24.50;99.90
9223;DHT22;7557;51.698;3.942;2023-06-22T09:47:09;24.50;99.90
9223;DHT22;7557;51.698;3.942;2023-06-22T09:49:38;24.60;99.90
9223;DHT22;7557;51.698;3.942;2023-06-22T09:52:06;24.60;99.90
9223;DHT22;7557;51.698;3.942;2023-06-22T09:54:34;24.60;99.90
9223;DHT22;7557;51.698;3.942;2023-06-22T09:57:01;24.50;99.90
9223;DHT22;7557;51.698;3.942;2023-06-22T09:59:29;24.40;99.90
9223;DHT22;7557;51.698;3.942;2023-06-22T10:01:56;24.40;99.90
9223;DHT22;7557;51.698;3.942;2023-06-22T10:04:26;24.30;99.90
9223;DHT22;7557;51.698;3.942;2023-06-22T10:06:55;24.30;99.90
9223;DHT22;7557;51.698;3.942;2023-06-22T10:09:22;24.30;99.90
9223;DHT22;7557;51.698;3.942;2023-06-22T10:11:49;24.30;99.90
9223;DHT22;7557;51.698;3.942;2023-06-22T10:14:17;24.30;99.90
9223;DHT22;7557;51.698;3.942;2023-06-22T10:16:44;24.40;99.90
9223;DHT22;7557;51.698;3.942;2023-06-22T10:19:12;24.40;99.90
9223;DHT22;7557;51.698;3.942;2023-06-22T10:21:39;24.40;99.90
9223;DHT22;7557;51.698;3.942;2023-06-22T10:24:09;24.50;99.90
9223;DHT22;7557;51.698;3.942;2023-06-22T10:26:36;24.50;99.90
9223;DHT22;7557;51.698;3.942;2023-06-22T10:29:04;24.50;99.90
9223;DHT22;7557;51.698;3.942;2023-06-22T10:31:31;24.50;99.90
9223;DHT22;7557;51.698;3.942;2023-06-22T10:33:58;24.50;99.90
9223;DHT22;7557;51.698;3.942;2023-06-22T10:36:26;24.40;99.90
9223;DHT22;7557;51.698;3.942;2023-06-22T10:38:53;24.40;99.90
9223;DHT22;7557;51.698;3.942;2023-06-22T10:41:23;24.40;99.90
9223;DHT22;7557;51.698;3.942;2023-06-22T10:43:50;24.30;99.90
9223;DHT22;7557;51.698;3.942;2023-06-22T10:46:17;24.30;99.90
9223;DHT22;7557;51.698;3.942;2023-06-22T10:48:45;24.20;99.90
9223;DHT22;7557;51.698;3.942;2023-06-22T10:51:12;24.10;99.90
9223;DHT22;7557;51.698;3.942;2023-06-22T10:53:40;24.10;99.90
9223;DHT22;7557;51.698;3.942;2023-06-22T10:56:07;24.00;99.90
9223;DHT22;7557;51.698;3.942;2023-06-22T10:58:36;24.10;99.90
9223;DHT22;7557;51.698;3.942;2023-06-22T11:01:03;24.10;99.90
9223;DHT22;7557;51.698;3.942;2023-06-22T11:03:31;24.10;99.90
9223;DHT22;7557;51.698;3.942;2023-06-22T11:05:58;24.20;99.90
9223;DHT22;7557;51.698;3.942;2023-06-22T11:08:26;24.20;99.90
9223;DHT22;7557;51.698;3.942;2023-06-22T11:10:53;24.10;99.90
9223;DHT22;7557;51.698;3.942;2023-06-22T11:13:21;24.10;99.90
9223;DHT22;7557;51.698;3.942;2023-06-22T11:15:50;24.10;99.90
9223;DHT22;7557;51.698;3.942;2023-06-22T11:18:18;24.10;99.90
9223;DHT22;7557;51.698;3.942;2023-06-22T11:20:46;24.00;99.90
9223;DHT22;7557;51.698;3.942;2023-06-22T11:23:15;23.90;99.90
9223;DHT22;7557;51.698;3.942;2023-06-22T11:25:42;23.80;99.90
9223;DHT22;7557;51.698;3.942;2023-06-22T11:28:10;23.80;99.90
9223;DHT22;7557;51.698;3.942;2023-06-22T11:30:37;23.70;99.90
9223;DHT22;7557;51.698;3.942;2023-06-22T11:33:06;23.70;99.90
9223;DHT22;7557;51.698;3.942;2023-06-22T11:35:33;23.60;99.90
9223;DHT22;7557;51.698;3.942;2023-06-22T11:38:01;23.50;99.90
9223;DHT22;7557;51.698;3.942;2023-06-22T11:40:29;23.50;99.90
9223;DHT22;7557;51.698;3.942;2023-06-22T11:42:57;23.40;99.90
9223;DHT22;7557;51.698;3.942;2023-06-22T11:45:24;23.30;99.90
9223;DHT22;7557;51.698;3.942;2023-06-22T11:47:51;23.30;99.90
9223;DHT22;7557;51.698;3.942;2023-06-22T11:50:20;23.30;99.90
9223;DHT22;7557;51.698;3.942;2023-06-22T11:52:48;23.20;99.90
9223;DHT22;7557;51.698;3.942;2023-06-22T11:55:16;23.20;99.90
9223;DHT22;7557;51.698;3.942;2023-06-22T11:57:53;23.10;99.90
9223;DHT22;7557;51.698;3.942;2023-06-22T12:00:20;23.00;99.90
9223;DHT22;7557;51.698;3.942;2023-06-22T12:02:49;23.00;99.90
9223;DHT22;7557;51.698;3.942;2023-06-22T12:05:21;23.00;99.90
9223;DHT22;7557;51.698;3.942;2023-06-22T12:07:49;23.00;99.90
9223;DHT22;7557;51.698;3.942;2023-06-22T12:10:18;23.10;99.90
9223;DHT22;7557;51.698;3.942;2023-06-22T12:12:45;23.10;99.90
9223;DHT22;7557;51.698;3.942;2023-06-22T12:15:13;23.10;99.90
9223;DHT22;7557;51.698;3.942;2023-06-22T12:17:40;23.10;99.90
9223;DHT22;7557;51.698;3.942;2023-06-22T12:20:09;23.00;99.90
9223;DHT22;7557;51.698;3.942;2023-06-22T12:22:38;22.90;99.90
9223;DHT22;7557;51.698;3.942;2023-06-22T12:25:06;22.90;99.90
9223;DHT22;7557;51.698;3.942;2023-06-22T12:27:33;22.90;99.90
9223;DHT22;7557;51.698;3.942;2023-06-22T12:30:01;22.90;99.90
9223;DHT22;7557;51.698;3.942;2023-06-22T12:32:29;22.90;99.90
9223;DHT22;7557;51.698;3.942;2023-06-22T12:34:56;22.90;99.90
9223;DHT22;7557;51.698;3.942;2023-06-22T12:37:24;22.90;99.90
9223;DHT22;7557;51.698;3.942;2023-06-22T12:39:54;22.90;99.90
9223;DHT22;7557;51.698;3.942;2023-06-22T12:42:22;22.90;99.90
9223;DHT22;7557;51.698;3.942;2023-06-22T12:44:49;22.80;99.90
9223;DHT22;7557;51.698;3.942;2023-06-22T12:47:17;22.70;99.90
9223;DHT22;7557;51.698;3.942;2023-06-22T12:49:45;22.60;99.90
9223;DHT22;7557;51.698;3.942;2023-06-22T12:52:13;22.50;99.90
9223;DHT22;7557;51.698;3.942;2023-06-22T12:54:40;22.50;99.90
9223;DHT22;7557;51.698;3.942;2023-06-22T12:57:09;22.50;99.90
9223;DHT22;7557;51.698;3.942;2023-06-22T12:59:37;22.60;99.90
9223;DHT22;7557;51.698;3.942;2023-06-22T13:02:04;22.70;99.90
9223;DHT22;7557;51.698;3.942;2023-06-22T13:04:32;22.80;99.90
9223;DHT22;7557;51.698;3.942;2023-06-22T13:07:00;22.80;99.90
9223;DHT22;7557;51.698;3.942;2023-06-22T13:09:28;22.80;99.90
9223;DHT22;7557;51.698;3.942;2023-06-22T13:11:55;22.80;99.90
9223;DHT22;7557;51.698;3.942;2023-06-22T13:14:24;22.80;99.90
9223;DHT22;7557;51.698;3.942;2023-06-22T13:16:52;22.80;99.90
9223;DHT22;7557;51.698;3.942;2023-06-22T13:19:19;22.80;99.90
9223;DHT22;7557;51.698;3.942;2023-06-22T13:21:46;22.80;99.90
9223;DHT22;7557;51.698;3.942;2023-06-22T13:24:14;22.80;99.90
9223;DHT22;7557;51.698;3.942;2023-06-22T13:26:42;22.90;99.90
9223;DHT22;7557;51.698;3.942;2023-06-22T13:29:09;22.80;99.90
9223;DHT22;7557;51.698;3.942;2023-06-22T13:31:39;22.90;99.90
9223;DHT22;7557;51.698;3.942;2023-06-22T13:34:06;22.90;99.90
9223;DHT22;7557;51.698;3.942;2023-06-22T13:36:33;22.90;99.90
9223;DHT22;7557;51.698;3.942;2023-06-22T13:39:01;22.80;99.90
9223;DHT22;7557;51.698;3.942;2023-06-22T13:41:29;22.70;99.90
9223;DHT22;7557;51.698;3.942;2023-06-22T13:43:57;22.70;99.90
9223;DHT22;7557;51.698;3.942;2023-06-22T13:46:24;22.60;99.90
9223;DHT22;7557;51.698;3.942;2023-06-22T13:48:53;22.60;99.90
9223;DHT22;7557;51.698;3.942;2023-06-22T13:51:20;22.60;99.90
9223;DHT22;7557;51.698;3.942;2023-06-22T13:53:47;22.50;99.90
9223;DHT22;7557;51.698;3.942;2023-06-22T13:56:15;22.40;99.90
9223;DHT22;7557;51.698;3.942;2023-06-22T13:58:42;22.40;99.90
9223;DHT22;7557;51.698;3.942;2023-06-22T14:01:10;22.40;99.90
9223;DHT22;7557;51.698;3.942;2023-06-22T14:03:37;22.40;99.90
9223;DHT22;7557;51.698;3.942;2023-06-22T14:06:06;22.30;99.90
9223;DHT22;7557;51.698;3.942;2023-06-22T14:08:36;22.30;99.90
9223;DHT22;7557;51.698;3.942;2023-06-22T14:11:04;22.40;99.90
9223;DHT22;7557;51.698;3.942;2023-06-22T14:13:31;22.40;99.90
9223;DHT22;7557;51.698;3.942;2023-06-22T14:15:59;22.50;99.90
9223;DHT22;7557;51.698;3.942;2023-06-22T14:18:26;22.40;99.90
9223;DHT22;7557;51.698;3.942;2023-06-22T14:20:54;22.40;99.90
9223;DHT22;7557;51.698;3.942;2023-06-22T14:23:22;22.40;99.90
9223;DHT22;7557;51.698;3.942;2023-06-22T14:25:50;22.40;99.90
9223;DHT22;7557;51.698;3.942;2023-06-22T14:28:17;22.40;99.90
9223;DHT22;7557;51.698;3.942;2023-06-22T14:30:45;22.40;99.90
9223;DHT22;7557;51.698;3.942;2023-06-22T14:33:12;22.40;99.90
9223;DHT22;7557;51.698;3.942;2023-06-22T14:35:40;22.20;99.90
9223;DHT22;7557;51.698;3.942;2023-06-22T14:38:07;22.30;99.90
9223;DHT22;7557;51.698;3.942;2023-06-22T14:40:36;22.20;99.90
9223;DHT22;7557;51.698;3.942;2023-06-22T14:43:03;22.10;99.90
9223;DHT22;7557;51.698;3.942;2023-06-22T14:45:31;22.00;99.90
9223;DHT22;7557;51.698;3.942;2023-06-22T14:47:58;22.00;99.90
9223;DHT22;7557;51.698;3.942;2023-06-22T14:50:25;22.00;99.90
9223;DHT22;7557;51.698;3.942;2023-06-22T14:52:53;22.00;99.90
9223;DHT22;7557;51.698;3.942;2023-06-22T14:55:20;22.00;99.90
9223;DHT22;7557;51.698;3.942;2023-06-22T14:57:49;22.10;99.90
9223;DHT22;7557;51.698;3.942;2023-06-22T15:00:17;22.10;99.90
9223;DHT22;7557;51.698;3.942;2023-06-22T15:02:45;22.20;99.90
9223;DHT22;7557;51.698;3.942;2023-06-22T15:05:12;22.30;99.90
9223;DHT22;7557;51.698;3.942;2023-06-22T15:07:40;22.30;99.90
9223;DHT22;7557;51.698;3.942;2023-06-22T15:10:09;22.30;99.90
9223;DHT22;7557;51.698;3.942;2023-06-22T15:12:36;22.40;99.90
9223;DHT22;7557;51.698;3.942;2023-06-22T15:15:06;22.30;99.90
9223;DHT22;7557;51.698;3.942;2023-06-22T15:17:34;22.30;99.90
9223;DHT22;7557;51.698;3.942;2023-06-22T15:20:03;22.20;99.90
9223;DHT22;7557;51.698;3.942;2023-06-22T15:22:31;22.10;99.90
9223;DHT22;7557;51.698;3.942;2023-06-22T15:24:58;22.10;99.90
9223;DHT22;7557;51.698;3.942;2023-06-22T15:27:26;22.00;99.90
9223;DHT22;7557;51.698;3.942;2023-06-22T15:29:53;21.80;99.90
9223;DHT22;7557;51.698;3.942;2023-06-22T15:32:22;21.80;99.90
9223;DHT22;7557;51.698;3.942;2023-06-22T15:34:50;21.70;99.90
9223;DHT22;7557;51.698;3.942;2023-06-22T15:37:19;21.60;99.90
9223;DHT22;7557;51.698;3.942;2023-06-22T15:39:47;21.60;99.90
9223;DHT22;7557;51.698;3.942;2023-06-22T15:42:15;21.50;99.90
9223;DHT22;7557;51.698;3.942;2023-06-22T15:44:42;21.50;99.90
9223;DHT22;7557;51.698;3.942;2023-06-22T15:47:12;21.50;99.90
9223;DHT22;7557;51.698;3.942;2023-06-22T15:49:41;21.50;99.90
9223;DHT22;7557;51.698;3.942;2023-06-22T15:52:11;21.50;99.90
9223;DHT22;7557;51.698;3.942;2023-06-22T15:54:44;21.60;99.90
9223;DHT22;7557;51.698;3.942;2023-06-22T15:57:11;21.60;99.90
9223;DHT22;7557;51.698;3.942;2023-06-22T15:59:39;21.60;99.90
9223;DHT22;7557;51.698;3.942;2023-06-22T16:02:06;21.60;99.90
9223;DHT22;7557;51.698;3.942;2023-06-22T16:04:34;21.70;99.90
9223;DHT22;7557;51.698;3.942;2023-06-22T16:07:03;21.70;99.90
9223;DHT22;7557;51.698;3.942;2023-06-22T16:09:31;21.70;99.90
9223;DHT22;7557;51.698;3.942;2023-06-22T16:11:59;21.80;99.90